sensor_id;sensor_type;location;lat;lon;timestamp;pressure;altitude;pressure_sealevel;temperature;humidity
76024;BME280;64719;52.124;6.226;2022-12-07T00:01:45;101874.03;;;2.88;100.00
76024;BME280;64719;52.124;6.226;2022-12-07T00:04:14;101879.56;;;2.87;100.00
76024;BME280;64719;52.124;6.226;2022-12-07T00:06:43;101878.47;;;2.80;100.00
76024;BME280;64719;52.124;6.226;2022-12-07T00:09:11;101883.22;;;2.86;100.00
76024;BME280;64719;52.124;6.226;2022-12-07T00:11:39;101874.75;;;2.73;100.00
76024;BME280;64719;52.124;6.226;2022-12-07T00:14:11;101881.13;;;2.54;100.00
76024;BME280;64719;52.124;6.226;2022-12-07T00:16:38;101875.91;;;2.70;100.00
76024;BME280;64719;52.124;6.226;2022-12-07T00:19:04;101882.44;;;2.50;100.00
76024;BME280;64719;52.124;6.226;2022-12-07T00:21:32;101872.16;;;2.28;100.00
76024;BME280;64719;52.124;6.226;2022-12-07T00:24:00;101863.91;;;2.39;100.00
76024;BME280;64719;52.124;6.226;2022-12-07T00:26:28;101870.31;;;2.46;100.00
76024;BME280;64719;52.124;6.226;2022-12-07T00:28:56;101861.84;;;2.16;100.00
76024;BME280;64719;52.124;6.226;2022-12-07T00:31:26;101870.09;;;2.22;100.00
76024;BME280;64719;52.124;6.226;2022-12-07T00:33:53;101867.19;;;1.98;100.00
76024;BME280;64719;52.124;6.226;2022-12-07T00:36:22;101867.81;;;2.10;100.00
76024;BME280;64719;52.124;6.226;2022-12-07T00:38:49;101852.06;;;2.24;100.00
76024;BME280;64719;52.124;6.226;2022-12-07T00:41:17;101855.34;;;2.36;100.00
76024;BME280;64719;52.124;6.226;2022-12-07T00:43:45;101853.63;;;2.52;100.00
76024;BME280;64719;52.124;6.226;2022-12-07T00:46:12;101857.16;;;2.53;100.00
76024;BME280;64719;52.124;6.226;2022-12-07T00:48:40;101854.00;;;2.75;100.00
76024;BME280;64719;52.124;6.226;2022-12-07T00:51:09;101860.16;;;2.67;100.00
76024;BME280;64719;52.124;6.226;2022-12-07T00:53:38;101846.91;;;2.66;100.00
76024;BME280;64719;52.124;6.226;2022-12-07T00:56:05;101850.31;;;2.76;100.00
76024;BME280;64719;52.124;6.226;2022-12-07T00:58:32;101847.47;;;2.77;100.00
76024;BME280;64719;52.124;6.226;2022-12-07T01:00:59;101841.28;;;2.77;100.00
76024;BME280;64719;52.124;6.226;2022-12-07T01:03:27;101845.81;;;2.59;100.00
76024;BME280;64719;52.124;6.226;2022-12-07T01:05:55;101844.38;;;2.47;100.00
76024;BME280;64719;52.124;6.226;2022-12-07T01:08:23;101848.31;;;2.35;100.00
76024;BME280;64719;52.124;6.226;2022-12-07T01:10:57;101850.38;;;2.41;100.00
76024;BME280;64719;52.124;6.226;2022-12-07T01:13:24;101843.09;;;2.33;100.00
76024;BME280;64719;52.124;6.226;2022-12-07T01:15:51;101842.03;;;2.26;100.00
76024;BME280;64719;52.124;6.226;2022-12-07T01:18:17;101844.56;;;2.28;100.00
76024;BME280;64719;52.124;6.226;2022-12-07T01:20:44;101852.13;;;2.15;100.00
76024;BME280;64719;52.124;6.226;2022-12-07T01:23:11;101857.03;;;2.19;100.00
76024;BME280;64719;52.124;6.226;2022-12-07T01:25:38;101851.22;;;2.24;100.00
76024;BME280;64719;52.124;6.226;2022-12-07T01:28:04;101857.16;;;2.18;100.00
76024;BME280;64719;52.124;6.226;2022-12-07T01:30:31;101850.75;;;2.28;100.00
76024;BME280;64719;52.124;6.226;2022-12-07T01:32:57;101854.34;;;2.19;100.00
76024;BME280;64719;52.124;6.226;2022-12-07T01:35:24;101841.97;;;2.18;100.00
76024;BME280;64719;52.124;6.226;2022-12-07T01:37:50;101851.16;;;2.16;100.00
76024;BME280;64719;52.124;6.226;2022-12-07T01:40:18;101853.13;;;2.14;100.00
76024;BME280;64719;52.124;6.226;2022-12-07T01:42:45;101853.38;;;2.20;100.00
76024;BME280;64719;52.124;6.226;2022-12-07T01:45:37;101845.19;;;2.22;100.00
76024;BME280;64719;52.124;6.226;2022-12-07T01:48:05;101854.81;;;2.15;100.00
76024;BME280;64719;52.124;6.226;2022-12-07T01:50:33;101857.94;;;2.10;100.00
76024;BME280;64719;52.124;6.226;2022-12-07T01:53:02;101851.38;;;2.05;100.00
76024;BME280;64719;52.124;6.226;2022-12-07T01:55:32;101861.16;;;2.14;100.00
76024;BME280;64719;52.124;6.226;2022-12-07T01:57:59;101850.00;;;2.01;100.00
76024;BME280;64719;52.124;6.226;2022-12-07T02:00:25;101859.09;;;2.08;100.00
76024;BME280;64719;52.124;6.226;2022-12-07T02:02:55;101841.66;;;2.21;100.00
76024;BME280;64719;52.124;6.226;2022-12-07T02:05:24;101844.84;;;2.07;100.00
76024;BME280;64719;52.124;6.226;2022-12-07T02:07:53;101844.41;;;2.12;100.00
76024;BME280;64719;52.124;6.226;2022-12-07T02:10:22;101847.84;;;2.04;100.00
76024;BME280;64719;52.124;6.226;2022-12-07T02:12:51;101837.47;;;2.19;100.00
76024;BME280;64719;52.124;6.226;2022-12-07T02:15:21;101844.94;;;1.98;100.00
76024;BME280;64719;52.124;6.226;2022-12-07T02:17:55;101832.09;;;2.01;100.00
76024;BME280;64719;52.124;6.226;2022-12-07T02:20:28;101834.31;;;2.06;100.00
76024;BME280;64719;52.124;6.226;2022-12-07T02:23:35;101843.66;;;2.02;100.00
76024;BME280;64719;52.124;6.226;2022-12-07T02:26:32;101834.16;;;2.07;100.00
76024;BME280;64719;52.124;6.226;2022-12-07T02:29:14;101839.44;;;1.99;100.00
76024;BME280;64719;52.124;6.226;2022-12-07T02:31:46;101839.13;;;2.02;100.00
76024;BME280;64719;52.124;6.226;2022-12-07T02:34:21;101849.00;;;2.02;100.00
76024;BME280;64719;52.124;6.226;2022-12-07T02:36:52;101843.34;;;2.05;100.00
76024;BME280;64719;52.124;6.226;2022-12-07T02:39:28;101845.72;;;2.08;100.00
76024;BME280;64719;52.124;6.226;2022-12-07T02:42:02;101847.22;;;2.10;100.00
76024;BME280;64719;52.124;6.226;2022-12-07T02:44:34;101845.56;;;2.09;100.00
76024;BME280;64719;52.124;6.226;2022-12-07T02:47:03;101841.97;;;2.01;100.00
76024;BME280;64719;52.124;6.226;2022-12-07T02:49:31;101842.88;;;1.92;100.00
76024;BME280;64719;52.124;6.226;2022-12-07T02:52:00;101838.44;;;2.00;100.00
76024;BME280;64719;52.124;6.226;2022-12-07T02:54:27;101840.56;;;1.97;100.00
76024;BME280;64719;52.124;6.226;2022-12-07T02:56:58;101842.34;;;1.88;100.00
76024;BME280;64719;52.124;6.226;2022-12-07T02:59:36;101852.72;;;1.73;100.00
76024;BME280;64719;52.124;6.226;2022-12-07T03:02:17;101850.09;;;1.64;100.00
76024;BME280;64719;52.124;6.226;2022-12-07T03:04:54;101852.41;;;1.76;100.00
76024;BME280;64719;52.124;6.226;2022-12-07T03:07:30;101863.28;;;1.92;100.00
76024;BME280;64719;52.124;6.226;2022-12-07T03:10:03;101853.59;;;1.92;100.00
76024;BME280;64719;52.124;6.226;2022-12-07T03:12:41;101860.66;;;1.83;100.00
76024;BME280;64719;52.124;6.226;2022-12-07T03:15:14;101858.38;;;1.70;100.00
76024;BME280;64719;52.124;6.226;2022-12-07T03:17:43;101854.84;;;1.70;100.00
76024;BME280;64719;52.124;6.226;2022-12-07T03:20:16;101853.50;;;2.01;100.00
76024;BME280;64719;52.124;6.226;2022-12-07T03:22:44;101845.25;;;2.12;100.00
76024;BME280;64719;52.124;6.226;2022-12-07T03:25:15;101847.47;;;2.17;100.00
76024;BME280;64719;52.124;6.226;2022-12-07T03:27:45;101850.09;;;2.26;100.00
76024;BME280;64719;52.124;6.226;2022-12-07T03:30:18;101838.53;;;2.26;100.00
76024;BME280;64719;52.124;6.226;2022-12-07T03:32:49;101839.88;;;2.30;100.00
76024;BME280;64719;52.124;6.226;2022-12-07T03:35:21;101833.56;;;2.31;100.00
76024;BME280;64719;52.124;6.226;2022-12-07T03:37:52;101832.69;;;2.30;100.00
76024;BME280;64719;52.124;6.226;2022-12-07T03:40:23;101833.16;;;2.26;100.00
76024;BME280;64719;52.124;6.226;2022-12-07T03:42:52;101832.97;;;2.45;100.00
76024;BME280;64719;52.124;6.226;2022-12-07T03:45:23;101831.38;;;2.52;100.00
76024;BME280;64719;52.124;6.226;2022-12-07T03:48:02;101820.44;;;2.63;100.00
76024;BME280;64719;52.124;6.226;2022-12-07T03:50:38;101816.81;;;2.72;100.00
76024;BME280;64719;52.124;6.226;2022-12-07T03:53:12;101819.31;;;2.73;100.00
76024;BME280;64719;52.124;6.226;2022-12-07T03:55:43;101813.91;;;2.65;100.00
76024;BME280;64719;52.124;6.226;2022-12-07T03:58:13;101817.59;;;2.64;100.00
76024;BME280;64719;52.124;6.226;2022-12-07T04:00:42;101812.38;;;2.63;100.00
76024;BME280;64719;52.124;6.226;2022-12-07T04:03:09;101817.59;;;2.64;100.00
76024;BME280;64719;52.124;6.226;2022-12-07T04:05:36;101817.28;;;2.67;100.00
76024;BME280;64719;52.124;6.226;2022-12-07T04:08:03;101814.59;;;2.67;100.00
76024;BME280;64719;52.124;6.226;2022-12-07T04:10:30;101811.75;;;2.69;100.00
76024;BME280;64719;52.124;6.226;2022-12-07T04:12:56;101811.72;;;2.43;100.00
76024;BME280;64719;52.124;6.226;2022-12-07T04:15:23;101812.94;;;2.31;100.00
76024;BME280;64719;52.124;6.226;2022-12-07T04:17:51;101819.53;;;2.37;100.00
76024;BME280;64719;52.124;6.226;2022-12-07T04:20:18;101819.38;;;2.38;100.00
76024;BME280;64719;52.124;6.226;2022-12-07T04:22:44;101820.44;;;2.45;100.00
76024;BME280;64719;52.124;6.226;2022-12-07T04:25:11;101827.47;;;2.46;100.00
76024;BME280;64719;52.124;6.226;2022-12-07T04:27:38;101826.53;;;2.55;100.00
76024;BME280;64719;52.124;6.226;2022-12-07T04:30:05;101830.28;;;2.62;100.00
76024;BME280;64719;52.124;6.226;2022-12-07T04:32:32;101841.44;;;2.75;100.00
76024;BME280;64719;52.124;6.226;2022-12-07T04:35:00;101843.13;;;2.76;100.00
76024;BME280;64719;52.124;6.226;2022-12-07T04:37:26;101836.44;;;2.80;100.00
76024;BME280;64719;52.124;6.226;2022-12-07T04:39:53;101824.47;;;2.67;100.00
76024;BME280;64719;52.124;6.226;2022-12-07T04:42:19;101823.63;;;2.66;100.00
76024;BME280;64719;52.124;6.226;2022-12-07T04:44:46;101825.78;;;2.63;100.00
76024;BME280;64719;52.124;6.226;2022-12-07T04:47:12;101821.75;;;2.41;100.00
76024;BME280;64719;52.124;6.226;2022-12-07T04:49:40;101811.00;;;2.16;100.00
76024;BME280;64719;52.124;6.226;2022-12-07T04:52:07;101804.09;;;1.96;100.00
76024;BME280;64719;52.124;6.226;2022-12-07T04:54:34;101806.03;;;2.03;100.00
76024;BME280;64719;52.124;6.226;2022-12-07T04:57:00;101806.78;;;1.96;100.00
76024;BME280;64719;52.124;6.226;2022-12-07T04:59:27;101820.78;;;1.89;100.00
76024;BME280;64719;52.124;6.226;2022-12-07T05:01:53;101806.25;;;1.92;100.00
76024;BME280;64719;52.124;6.226;2022-12-07T05:04:20;101814.25;;;1.92;100.00
76024;BME280;64719;52.124;6.226;2022-12-07T05:06:46;101806.94;;;2.12;100.00
76024;BME280;64719;52.124;6.226;2022-12-07T05:09:14;101800.03;;;2.27;100.00
76024;BME280;64719;52.124;6.226;2022-12-07T05:11:41;101808.22;;;2.25;100.00
76024;BME280;64719;52.124;6.226;2022-12-07T05:14:11;101813.09;;;2.30;100.00
76024;BME280;64719;52.124;6.226;2022-12-07T05:16:39;101815.78;;;2.30;100.00
76024;BME280;64719;52.124;6.226;2022-12-07T05:19:06;101809.91;;;2.26;100.00
76024;BME280;64719;52.124;6.226;2022-12-07T05:21:33;101810.69;;;2.19;100.00
76024;BME280;64719;52.124;6.226;2022-12-07T05:24:00;101820.41;;;2.20;100.00
76024;BME280;64719;52.124;6.226;2022-12-07T05:26:29;101814.41;;;2.26;100.00
76024;BME280;64719;52.124;6.226;2022-12-07T05:28:57;101809.00;;;2.35;100.00
76024;BME280;64719;52.124;6.226;2022-12-07T05:31:25;101810.03;;;2.42;100.00
76024;BME280;64719;52.124;6.226;2022-12-07T05:33:52;101821.44;;;2.44;100.00
76024;BME280;64719;52.124;6.226;2022-12-07T05:36:18;101822.19;;;2.54;100.00
76024;BME280;64719;52.124;6.226;2022-12-07T05:38:45;101815.69;;;2.57;100.00
76024;BME280;64719;52.124;6.226;2022-12-07T05:41:14;101816.19;;;2.60;100.00
76024;BME280;64719;52.124;6.226;2022-12-07T05:43:56;101809.19;;;2.59;100.00
76024;BME280;64719;52.124;6.226;2022-12-07T05:46:22;101811.38;;;2.64;100.00
76024;BME280;64719;52.124;6.226;2022-12-07T05:48:49;101811.38;;;2.64;100.00
76024;BME280;64719;52.124;6.226;2022-12-07T05:51:16;101804.81;;;2.58;100.00
76024;BME280;64719;52.124;6.226;2022-12-07T05:53:42;101805.81;;;2.57;100.00
76024;BME280;64719;52.124;6.226;2022-12-07T05:56:09;101797.22;;;2.54;100.00
76024;BME280;64719;52.124;6.226;2022-12-07T05:58:35;101804.06;;;2.48;100.00
76024;BME280;64719;52.124;6.226;2022-12-07T06:01:21;101798.94;;;2.37;100.00
76024;BME280;64719;52.124;6.226;2022-12-07T06:03:47;101794.91;;;2.33;100.00
76024;BME280;64719;52.124;6.226;2022-12-07T06:06:14;101796.28;;;2.20;100.00
76024;BME280;64719;52.124;6.226;2022-12-07T06:08:40;101795.28;;;2.21;100.00
76024;BME280;64719;52.124;6.226;2022-12-07T06:11:07;101800.06;;;2.09;100.00
76024;BME280;64719;52.124;6.226;2022-12-07T06:13:51;101796.38;;;2.10;100.00
76024;BME280;64719;52.124;6.226;2022-12-07T06:16:18;101795.59;;;2.18;100.00
76024;BME280;64719;52.124;6.226;2022-12-07T06:18:46;101807.06;;;2.10;100.00
76024;BME280;64719;52.124;6.226;2022-12-07T06:21:12;101807.63;;;2.14;100.00
76024;BME280;64719;52.124;6.226;2022-12-07T06:23:39;101797.16;;;2.20;100.00
76024;BME280;64719;52.124;6.226;2022-12-07T06:26:06;101796.84;;;2.06;100.00
76024;BME280;64719;52.124;6.226;2022-12-07T06:28:32;101801.38;;;2.05;100.00
76024;BME280;64719;52.124;6.226;2022-12-07T06:30:59;101788.13;;;2.04;100.00
76024;BME280;64719;52.124;6.226;2022-12-07T06:33:26;101792.03;;;1.92;100.00
76024;BME280;64719;52.124;6.226;2022-12-07T06:35:55;101788.22;;;1.94;100.00
76024;BME280;64719;52.124;6.226;2022-12-07T06:38:21;101802.56;;;1.75;100.00
76024;BME280;64719;52.124;6.226;2022-12-07T06:40:48;101798.47;;;1.81;100.00
76024;BME280;64719;52.124;6.226;2022-12-07T06:43:14;101800.28;;;1.80;100.00
76024;BME280;64719;52.124;6.226;2022-12-07T06:45:41;101804.00;;;1.70;100.00
76024;BME280;64719;52.124;6.226;2022-12-07T06:48:08;101806.22;;;1.74;100.00
76024;BME280;64719;52.124;6.226;2022-12-07T06:50:34;101804.72;;;1.72;100.00
76024;BME280;64719;52.124;6.226;2022-12-07T06:53:02;101802.25;;;1.61;100.00
76024;BME280;64719;52.124;6.226;2022-12-07T06:55:29;101804.00;;;1.52;100.00
76024;BME280;64719;52.124;6.226;2022-12-07T06:57:55;101813.69;;;1.53;100.00
76024;BME280;64719;52.124;6.226;2022-12-07T07:00:22;101807.03;;;1.57;100.00
76024;BME280;64719;52.124;6.226;2022-12-07T07:02:48;101805.66;;;1.53;100.00
76024;BME280;64719;52.124;6.226;2022-12-07T07:05:15;101811.88;;;1.54;100.00
76024;BME280;64719;52.124;6.226;2022-12-07T07:07:41;101815.31;;;1.64;100.00
76024;BME280;64719;52.124;6.226;2022-12-07T07:10:10;101819.28;;;1.60;100.00
76024;BME280;64719;52.124;6.226;2022-12-07T07:12:36;101816.41;;;1.44;100.00
76024;BME280;64719;52.124;6.226;2022-12-07T07:15:04;101818.34;;;1.51;100.00
76024;BME280;64719;52.124;6.226;2022-12-07T07:17:30;101820.97;;;1.61;100.00
76024;BME280;64719;52.124;6.226;2022-12-07T07:19:57;101823.50;;;1.62;100.00
76024;BME280;64719;52.124;6.226;2022-12-07T07:22:23;101823.94;;;1.58;100.00
76024;BME280;64719;52.124;6.226;2022-12-07T07:24:50;101821.72;;;1.53;100.00
76024;BME280;64719;52.124;6.226;2022-12-07T07:27:18;101818.03;;;1.54;100.00
76024;BME280;64719;52.124;6.226;2022-12-07T07:29:44;101826.22;;;1.53;100.00
76024;BME280;64719;52.124;6.226;2022-12-07T07:32:11;101825.84;;;1.48;100.00
76024;BME280;64719;52.124;6.226;2022-12-07T07:34:39;101823.75;;;1.42;100.00
76024;BME280;64719;52.124;6.226;2022-12-07T07:37:05;101819.31;;;1.33;100.00
76024;BME280;64719;52.124;6.226;2022-12-07T07:39:32;101818.94;;;1.18;100.00
76024;BME280;64719;52.124;6.226;2022-12-07T07:41:58;101816.25;;;1.18;100.00
76024;BME280;64719;52.124;6.226;2022-12-07T07:44:26;101823.28;;;1.19;100.00
76024;BME280;64719;52.124;6.226;2022-12-07T07:46:53;101823.19;;;1.11;100.00
76024;BME280;64719;52.124;6.226;2022-12-07T07:49:19;101830.63;;;1.17;100.00
76024;BME280;64719;52.124;6.226;2022-12-07T07:51:46;101822.91;;;1.14;100.00
76024;BME280;64719;52.124;6.226;2022-12-07T07:54:12;101826.50;;;1.23;100.00
76024;BME280;64719;52.124;6.226;2022-12-07T07:56:39;101833.16;;;1.46;100.00
76024;BME280;64719;52.124;6.226;2022-12-07T07:59:05;101829.09;;;1.86;100.00
76024;BME280;64719;52.124;6.226;2022-12-07T08:01:33;101822.53;;;2.16;100.00
76024;BME280;64719;52.124;6.226;2022-12-07T08:04:00;101831.69;;;2.31;100.00
76024;BME280;64719;52.124;6.226;2022-12-07T08:06:27;101835.16;;;2.41;100.00
76024;BME280;64719;52.124;6.226;2022-12-07T08:08:53;101830.38;;;2.53;100.00
76024;BME280;64719;52.124;6.226;2022-12-07T08:11:19;101834.44;;;2.57;100.00
76024;BME280;64719;52.124;6.226;2022-12-07T08:13:46;101843.00;;;2.60;100.00
76024;BME280;64719;52.124;6.226;2022-12-07T08:16:13;101842.75;;;2.71;100.00
76024;BME280;64719;52.124;6.226;2022-12-07T08:18:42;101841.19;;;2.86;100.00
76024;BME280;64719;52.124;6.226;2022-12-07T08:21:10;101842.66;;;3.06;99.52
76024;BME280;64719;52.124;6.226;2022-12-07T08:23:37;101836.34;;;3.23;98.75
76024;BME280;64719;52.124;6.226;2022-12-07T08:26:06;101833.34;;;3.18;98.52
76024;BME280;64719;52.124;6.226;2022-12-07T08:28:33;101843.69;;;3.13;98.65
76024;BME280;64719;52.124;6.226;2022-12-07T08:31:00;101830.97;;;3.15;98.52
76024;BME280;64719;52.124;6.226;2022-12-07T08:33:27;101832.50;;;3.18;98.75
76024;BME280;64719;52.124;6.226;2022-12-07T08:36:00;101836.03;;;3.18;98.82
76024;BME280;64719;52.124;6.226;2022-12-07T08:38:27;101831.78;;;3.16;98.35
76024;BME280;64719;52.124;6.226;2022-12-07T08:40:54;101835.50;;;3.15;98.85
76024;BME280;64719;52.124;6.226;2022-12-07T08:43:21;101846.47;;;3.04;98.73
76024;BME280;64719;52.124;6.226;2022-12-07T08:45:49;101841.59;;;2.99;98.50
76024;BME280;64719;52.124;6.226;2022-12-07T08:48:20;101836.53;;;3.22;98.49
76024;BME280;64719;52.124;6.226;2022-12-07T08:50:50;101838.19;;;3.56;98.23
76024;BME280;64719;52.124;6.226;2022-12-07T08:53:18;101840.47;;;3.93;97.48
76024;BME280;64719;52.124;6.226;2022-12-07T08:55:45;101838.13;;;3.90;96.48
76024;BME280;64719;52.124;6.226;2022-12-07T08:58:12;101838.75;;;3.76;96.26
76024;BME280;64719;52.124;6.226;2022-12-07T09:00:39;101840.16;;;3.88;96.72
76024;BME280;64719;52.124;6.226;2022-12-07T09:03:06;101847.00;;;3.83;96.62
76024;BME280;64719;52.124;6.226;2022-12-07T09:05:33;101838.97;;;3.91;96.19
76024;BME280;64719;52.124;6.226;2022-12-07T09:08:00;101831.44;;;4.02;96.99
76024;BME280;64719;52.124;6.226;2022-12-07T09:10:29;101836.16;;;4.16;95.69
76024;BME280;64719;52.124;6.226;2022-12-07T09:12:55;101837.66;;;4.19;95.44
76024;BME280;64719;52.124;6.226;2022-12-07T09:15:25;101833.81;;;4.13;96.43
76024;BME280;64719;52.124;6.226;2022-12-07T09:17:52;101840.38;;;4.27;95.06
76024;BME280;64719;52.124;6.226;2022-12-07T09:20:19;101840.88;;;4.22;95.28
76024;BME280;64719;52.124;6.226;2022-12-07T09:22:45;101845.75;;;4.27;95.52
76024;BME280;64719;52.124;6.226;2022-12-07T09:25:12;101847.09;;;4.39;95.47
76024;BME280;64719;52.124;6.226;2022-12-07T09:27:41;101844.06;;;4.42;95.25
76024;BME280;64719;52.124;6.226;2022-12-07T09:30:08;101839.22;;;4.45;94.49
76024;BME280;64719;52.124;6.226;2022-12-07T09:32:34;101837.53;;;4.52;95.03
76024;BME280;64719;52.124;6.226;2022-12-07T09:35:02;101843.25;;;4.57;93.75
76024;BME280;64719;52.124;6.226;2022-12-07T09:37:28;101839.53;;;4.82;93.60
76024;BME280;64719;52.124;6.226;2022-12-07T09:39:56;101840.81;;;5.10;93.21
76024;BME280;64719;52.124;6.226;2022-12-07T09:42:28;101841.06;;;5.39;91.55
76024;BME280;64719;52.124;6.226;2022-12-07T09:44:58;101844.22;;;5.90;91.21
76024;BME280;64719;52.124;6.226;2022-12-07T09:47:26;101838.75;;;5.75;89.75
76024;BME280;64719;52.124;6.226;2022-12-07T09:49:55;101835.22;;;5.28;90.55
76024;BME280;64719;52.124;6.226;2022-12-07T09:52:27;101833.63;;;5.80;90.77
76024;BME280;64719;52.124;6.226;2022-12-07T09:54:55;101835.59;;;6.25;89.19
76024;BME280;64719;52.124;6.226;2022-12-07T09:57:27;101835.66;;;9.25;80.61
76024;BME280;64719;52.124;6.226;2022-12-07T10:00:00;101827.19;;;10.88;73.35
76024;BME280;64719;52.124;6.226;2022-12-07T10:02:35;101824.28;;;10.89;73.21
76024;BME280;64719;52.124;6.226;2022-12-07T10:05:05;101816.09;;;9.71;75.11
76024;BME280;64719;52.124;6.226;2022-12-07T10:07:32;101816.44;;;7.08;81.14
76024;BME280;64719;52.124;6.226;2022-12-07T10:09:58;101819.41;;;6.47;85.31
76024;BME280;64719;52.124;6.226;2022-12-07T10:12:25;101819.63;;;8.48;79.96
76024;BME280;64719;52.124;6.226;2022-12-07T10:14:59;101814.03;;;11.11;77.01
76024;BME280;64719;52.124;6.226;2022-12-07T10:17:33;101810.00;;;11.33;70.26
76024;BME280;64719;52.124;6.226;2022-12-07T10:20:15;101808.91;;;9.50;74.05
76024;BME280;64719;52.124;6.226;2022-12-07T10:22:54;101800.06;;;7.89;81.78
76024;BME280;64719;52.124;6.226;2022-12-07T10:25:24;101810.28;;;9.80;76.93
76024;BME280;64719;52.124;6.226;2022-12-07T10:28:10;101805.75;;;10.00;72.29
76024;BME280;64719;52.124;6.226;2022-12-07T10:30:48;101801.19;;;10.01;71.69
76024;BME280;64719;52.124;6.226;2022-12-07T10:33:31;101799.50;;;9.46;71.13
76024;BME280;64719;52.124;6.226;2022-12-07T10:35:58;101786.66;;;8.59;75.52
76024;BME280;64719;52.124;6.226;2022-12-07T10:38:26;101800.97;;;7.61;78.80
76024;BME280;64719;52.124;6.226;2022-12-07T10:41:04;101801.66;;;7.33;82.37
76024;BME280;64719;52.124;6.226;2022-12-07T10:43:31;101795.34;;;7.12;83.00
76024;BME280;64719;52.124;6.226;2022-12-07T10:46:43;101795.03;;;7.07;83.45
76024;BME280;64719;52.124;6.226;2022-12-07T10:49:30;101798.41;;;6.94;83.78
76024;BME280;64719;52.124;6.226;2022-12-07T10:52:07;101789.22;;;6.66;84.52
76024;BME280;64719;52.124;6.226;2022-12-07T10:54:46;101780.06;;;6.38;85.64
76024;BME280;64719;52.124;6.226;2022-12-07T10:57:27;101784.88;;;6.65;85.46
76024;BME280;64719;52.124;6.226;2022-12-07T11:00:18;101779.88;;;7.35;83.63
76024;BME280;64719;52.124;6.226;2022-12-07T11:03:09;101776.91;;;7.66;81.88
76024;BME280;64719;52.124;6.226;2022-12-07T11:05:48;101774.44;;;7.49;82.64
76024;BME280;64719;52.124;6.226;2022-12-07T11:08:21;101777.03;;;6.56;83.68
76024;BME280;64719;52.124;6.226;2022-12-07T11:10:59;101782.00;;;6.67;85.27
76024;BME280;64719;52.124;6.226;2022-12-07T11:13:33;101777.00;;;6.41;85.95
76024;BME280;64719;52.124;6.226;2022-12-07T11:16:16;101767.66;;;6.52;85.55
76024;BME280;64719;52.124;6.226;2022-12-07T11:18:56;101767.09;;;6.71;85.22
76024;BME280;64719;52.124;6.226;2022-12-07T11:21:30;101761.69;;;6.56;84.33
76024;BME280;64719;52.124;6.226;2022-12-07T11:24:02;101752.44;;;6.73;84.80
76024;BME280;64719;52.124;6.226;2022-12-07T11:26:47;101753.72;;;6.92;83.52
76024;BME280;64719;52.124;6.226;2022-12-07T11:29:34;101751.41;;;6.60;84.60
76024;BME280;64719;52.124;6.226;2022-12-07T11:32:15;101751.25;;;6.16;86.10
76024;BME280;64719;52.124;6.226;2022-12-07T11:34:52;101750.19;;;6.25;86.60
76024;BME280;64719;52.124;6.226;2022-12-07T11:37:27;101757.66;;;6.38;86.67
76024;BME280;64719;52.124;6.226;2022-12-07T11:39:56;101755.75;;;6.61;85.33
76024;BME280;64719;52.124;6.226;2022-12-07T11:42:29;101754.13;;;7.03;83.69
76024;BME280;64719;52.124;6.226;2022-12-07T11:45:00;101740.69;;;6.52;83.92
76024;BME280;64719;52.124;6.226;2022-12-07T11:47:30;101736.59;;;6.19;85.64
76024;BME280;64719;52.124;6.226;2022-12-07T11:50:14;101731.69;;;6.22;85.85
76024;BME280;64719;52.124;6.226;2022-12-07T11:52:44;101737.38;;;6.27;86.06
76024;BME280;64719;52.124;6.226;2022-12-07T11:55:19;101734.38;;;6.45;85.97
76024;BME280;64719;52.124;6.226;2022-12-07T11:57:51;101731.34;;;6.91;84.80
76024;BME280;64719;52.124;6.226;2022-12-07T12:00:21;101726.94;;;7.55;81.41
76024;BME280;64719;52.124;6.226;2022-12-07T12:02:52;101725.31;;;7.96;81.31
76024;BME280;64719;52.124;6.226;2022-12-07T12:05:24;101716.47;;;7.45;80.95
76024;BME280;64719;52.124;6.226;2022-12-07T12:07:59;101720.75;;;7.40;81.11
76024;BME280;64719;52.124;6.226;2022-12-07T12:10:42;101719.19;;;7.31;80.75
76024;BME280;64719;52.124;6.226;2022-12-07T12:13:43;101716.03;;;7.27;80.72
76024;BME280;64719;52.124;6.226;2022-12-07T12:16:27;101721.28;;;7.50;79.75
76024;BME280;64719;52.124;6.226;2022-12-07T12:19:17;101713.91;;;7.80;77.64
76024;BME280;64719;52.124;6.226;2022-12-07T12:21:53;101703.97;;;8.22;75.93
76024;BME280;64719;52.124;6.226;2022-12-07T12:24:23;101708.13;;;8.80;75.06
76024;BME280;64719;52.124;6.226;2022-12-07T12:26:54;101700.16;;;8.72;74.30
76024;BME280;64719;52.124;6.226;2022-12-07T12:29:28;101699.31;;;8.71;74.75
76024;BME280;64719;52.124;6.226;2022-12-07T12:32:07;101696.41;;;8.18;74.60
76024;BME280;64719;52.124;6.226;2022-12-07T12:34:40;101696.75;;;7.66;77.42
76024;BME280;64719;52.124;6.226;2022-12-07T12:37:43;101699.00;;;7.84;77.46
76024;BME280;64719;52.124;6.226;2022-12-07T12:40:43;101687.66;;;7.02;80.01
76024;BME280;64719;52.124;6.226;2022-12-07T12:46:46;101678.00;;;6.93;81.18
76024;BME280;64719;52.124;6.226;2022-12-07T12:49:42;101684.81;;;6.89;81.44
76024;BME280;64719;52.124;6.226;2022-12-07T12:55:17;101676.81;;;6.96;81.50
76024;BME280;64719;52.124;6.226;2022-12-07T12:57:47;101672.09;;;7.19;80.00
76024;BME280;64719;52.124;6.226;2022-12-07T13:00:19;101680.00;;;7.35;80.16
76024;BME280;64719;52.124;6.226;2022-12-07T13:02:50;101679.53;;;7.31;80.04
76024;BME280;64719;52.124;6.226;2022-12-07T13:05:20;101679.22;;;7.41;80.27
76024;BME280;64719;52.124;6.226;2022-12-07T13:08:00;101670.50;;;7.60;78.68
76024;BME280;64719;52.124;6.226;2022-12-07T13:10:39;101671.38;;;7.67;77.86
76024;BME280;64719;52.124;6.226;2022-12-07T13:13:31;101664.59;;;7.71;77.89
76024;BME280;64719;52.124;6.226;2022-12-07T13:16:36;101660.84;;;7.51;77.45
76024;BME280;64719;52.124;6.226;2022-12-07T13:25:22;101655.47;;;8.21;73.99